Terminal Aerodrome Forecast
Issued by NWS Memphis, TN

Home | Current Version | Previous Version | Text Only | Print | Product List | Glossary On
Versions: 1 2 3 4 5 6 7 8 9 10 11 12 13 14 15 16
686
FTUS44 KMEG 190530
TAFJBR
TAF
KJBR 190530Z 1906/2006 00000KT P6SM SCT150
     FM190700 00000KT P6SM SKC
      TEMPO 1909/1913 5SM BR
     FM191600 32005KT P6SM VCTS SCT050CB SCT250
     FM200100 00000KT P6SM SCT250=

USA.gov is the U.S. government's official web portal to all federal, state and local government web resources and services.